createdAt,value
2018-12-13T00:00:46.321Z,1009.4
2018-12-13T00:01:47.702Z,1009.4
2018-12-13T00:02:49.184Z,1009.4
2018-12-13T00:03:50.458Z,1009.4
2018-12-13T00:04:51.835Z,1009.4
2018-12-13T00:05:53.282Z,1009.5
2018-12-13T00:06:54.655Z,1009.4
2018-12-13T00:07:55.975Z,1009.4
2018-12-13T00:08:57.352Z,1009.4
2018-12-13T00:09:58.747Z,1009.4
2018-12-13T00:11:00.119Z,1009.4
2018-12-13T00:12:01.492Z,1009.4
2018-12-13T00:13:02.886Z,1009.4
2018-12-13T00:14:04.261Z,1009.4
2018-12-13T00:15:05.654Z,1009.4
2018-12-13T00:16:07.045Z,1009.3
2018-12-13T00:17:08.426Z,1009.3
2018-12-13T00:18:09.816Z,1009.3
2018-12-13T00:19:11.196Z,1009.3
2018-12-13T00:20:12.583Z,1009.3
2018-12-13T00:21:13.984Z,1009.3
2018-12-13T00:22:15.365Z,1009.3
2018-12-13T00:23:16.758Z,1009.3
2018-12-13T00:24:18.148Z,1009.3
2018-12-13T00:25:19.527Z,1009.3
2018-12-13T00:26:20.920Z,1009.3
2018-12-13T00:27:22.306Z,1009.2
2018-12-13T00:28:23.694Z,1009.3
2018-12-13T00:29:25.068Z,1009.2
2018-12-13T00:30:26.454Z,1009.2
2018-12-13T00:31:27.833Z,1009.2
2018-12-13T00:32:29.210Z,1009.2
2018-12-13T00:33:30.605Z,1009.2
2018-12-13T00:34:31.989Z,1009.2
2018-12-13T00:35:33.362Z,1009.2
2018-12-13T00:36:39.743Z,1009.2
2018-12-13T00:37:36.094Z,1009.2
2018-12-13T00:38:37.487Z,1009.2
2018-12-13T00:39:38.862Z,1009.3
2018-12-13T00:40:40.249Z,1009.2
2018-12-13T00:41:41.637Z,1009.2
2018-12-13T00:42:43.017Z,1009.1
2018-12-13T00:43:44.394Z,1009.1
2018-12-13T00:44:45.787Z,1009.2
2018-12-13T00:45:47.168Z,1009.2
2018-12-13T00:46:48.549Z,1009.2
2018-12-13T00:47:49.930Z,1009.1
2018-12-13T00:48:51.314Z,1009.1
2018-12-13T00:49:52.690Z,1009.1
2018-12-13T00:50:54.085Z,1009.1
2018-12-13T00:51:55.536Z,1009.1
2018-12-13T00:52:56.962Z,1009.1
2018-12-13T00:53:58.385Z,1009.1
2018-12-13T00:54:59.769Z,1009.1
2018-12-13T00:56:01.213Z,1009.2
2018-12-13T00:57:02.591Z,1009.2
2018-12-13T00:58:04.000Z,1009.2
2018-12-13T00:59:05.385Z,1009.1
2018-12-13T01:00:06.773Z,1009.1
2018-12-13T01:01:08.155Z,1009.1
2018-12-13T01:02:09.536Z,1009.1
2018-12-13T01:03:10.916Z,1009.0
2018-12-13T01:04:12.303Z,1009.1
2018-12-13T01:05:13.694Z,1009.0
2018-12-13T01:06:15.072Z,1009.0
2018-12-13T01:07:16.466Z,1009.0
2018-12-13T01:08:17.845Z,1009.0
2018-12-13T01:09:19.224Z,1009.0
2018-12-13T01:10:20.610Z,1009.0
2018-12-13T01:11:21.986Z,1009.0
2018-12-13T01:12:23.372Z,1009.0
2018-12-13T01:13:24.748Z,1009.0
2018-12-13T01:14:26.126Z,1009.0
2018-12-13T01:15:27.530Z,1009.0
2018-12-13T01:16:28.910Z,1008.9
2018-12-13T01:17:30.293Z,1009.0
2018-12-13T01:18:31.672Z,1008.9
2018-12-13T01:19:33.068Z,1008.9
2018-12-13T01:20:34.441Z,1008.8
2018-12-13T01:21:35.833Z,1008.9
2018-12-13T01:22:37.227Z,1008.9
2018-12-13T01:23:38.603Z,1008.9
2018-12-13T01:24:39.984Z,1008.8
2018-12-13T01:25:41.364Z,1008.8
2018-12-13T01:26:42.755Z,1008.8
2018-12-13T01:27:44.135Z,1008.9
2018-12-13T01:28:45.514Z,1008.8
2018-12-13T01:29:46.946Z,1008.8
2018-12-13T01:30:48.302Z,1008.8
2018-12-13T01:31:49.680Z,1008.8
2018-12-13T01:32:51.057Z,1008.8
2018-12-13T01:33:52.435Z,1008.8
2018-12-13T01:34:53.813Z,1008.8
2018-12-13T01:35:55.195Z,1008.8
2018-12-13T01:36:56.583Z,1008.8
2018-12-13T01:37:57.969Z,1008.8
2018-12-13T01:38:59.358Z,1008.8
2018-12-13T01:40:00.752Z,1008.8
2018-12-13T01:41:02.113Z,1008.8
2018-12-13T01:42:03.517Z,1008.8
2018-12-13T01:43:04.920Z,1008.8
2018-12-13T01:44:06.354Z,1008.8
2018-12-13T01:45:07.756Z,1008.8
2018-12-13T01:46:09.142Z,1008.8
2018-12-13T01:47:10.529Z,1008.8
2018-12-13T01:48:11.918Z,1008.8
2018-12-13T01:49:13.296Z,1008.8
2018-12-13T01:50:14.677Z,1008.8
2018-12-13T01:51:16.062Z,1008.8
2018-12-13T01:52:17.445Z,1008.8
2018-12-13T01:53:18.830Z,1008.7
2018-12-13T01:54:20.222Z,1008.7
2018-12-13T01:55:21.604Z,1008.7
2018-12-13T01:56:22.983Z,1008.7
2018-12-13T01:57:24.359Z,1008.7
2018-12-13T01:58:25.751Z,1008.7
2018-12-13T01:59:27.130Z,1008.6
2018-12-13T02:00:28.513Z,1008.6
2018-12-13T02:01:29.913Z,1008.6
2018-12-13T02:02:31.293Z,1008.6
2018-12-13T02:03:32.674Z,1008.6
2018-12-13T02:04:34.055Z,1008.6
2018-12-13T02:05:35.436Z,1008.6
2018-12-13T02:06:36.818Z,1008.6
2018-12-13T02:07:38.200Z,1008.6
2018-12-13T02:08:39.597Z,1008.6
2018-12-13T02:09:40.963Z,1008.7
2018-12-13T02:10:42.342Z,1008.6
2018-12-13T02:11:43.743Z,1008.6
2018-12-13T02:12:45.142Z,1008.7
2018-12-13T02:13:46.540Z,1008.6
2018-12-13T02:14:47.918Z,1008.6
2018-12-13T02:15:49.307Z,1008.6
2018-12-13T02:16:50.683Z,1008.6
2018-12-13T02:17:52.063Z,1008.6
2018-12-13T02:18:53.467Z,1008.6
2018-12-13T02:19:54.846Z,1008.6
2018-12-13T02:20:56.227Z,1008.6
2018-12-13T02:21:57.619Z,1008.6
2018-12-13T02:22:58.989Z,1008.6
2018-12-13T02:24:00.377Z,1008.6
2018-12-13T02:25:01.804Z,1008.6
2018-12-13T02:26:03.171Z,1008.6
2018-12-13T02:27:04.575Z,1008.6
2018-12-13T02:28:05.956Z,1008.5
2018-12-13T02:29:07.337Z,1008.6
2018-12-13T02:30:08.726Z,1008.5
2018-12-13T02:31:10.089Z,1008.6
2018-12-13T02:32:11.503Z,1008.6
2018-12-13T02:33:12.946Z,1008.6
2018-12-13T02:34:14.325Z,1008.5
2018-12-13T02:35:15.714Z,1008.5
2018-12-13T02:36:17.192Z,1008.5
2018-12-13T02:37:18.633Z,1008.5
2018-12-13T02:38:20.012Z,1008.5
2018-12-13T02:39:21.400Z,1008.5
2018-12-13T02:40:22.779Z,1008.5
2018-12-13T02:41:24.157Z,1008.5
2018-12-13T02:42:25.536Z,1008.5
2018-12-13T02:43:26.918Z,1008.5
2018-12-13T02:44:28.299Z,1008.5
2018-12-13T02:45:29.703Z,1008.5
2018-12-13T02:46:31.083Z,1008.4
2018-12-13T02:47:32.465Z,1008.4
2018-12-13T02:48:33.847Z,1008.4
2018-12-13T02:49:35.225Z,1008.4
2018-12-13T02:50:36.623Z,1008.3
2018-12-13T02:51:38.005Z,1008.3
2018-12-13T02:52:39.379Z,1008.3
2018-12-13T02:53:40.764Z,1008.3
2018-12-13T02:54:42.135Z,1008.3
2018-12-13T02:55:43.526Z,1008.3
2018-12-13T02:56:44.905Z,1008.2
2018-12-13T02:57:46.300Z,1008.2
2018-12-13T02:58:47.699Z,1008.3
2018-12-13T02:59:49.075Z,1008.3
2018-12-13T03:00:50.459Z,1008.3
2018-12-13T03:01:51.862Z,1008.3
2018-12-13T03:02:53.237Z,1008.3
2018-12-13T03:03:54.623Z,1008.3
2018-12-13T03:04:56.011Z,1008.3
2018-12-13T03:05:57.389Z,1008.2
2018-12-13T03:06:58.767Z,1008.2
2018-12-13T03:08:00.149Z,1008.3
2018-12-13T03:09:01.541Z,1008.2
2018-12-13T03:10:02.904Z,1008.2
2018-12-13T03:11:04.296Z,1008.2
2018-12-13T03:12:05.685Z,1008.2
2018-12-13T03:13:07.064Z,1008.2
2018-12-13T03:14:08.441Z,1008.2
2018-12-13T03:15:09.823Z,1008.2
2018-12-13T03:16:11.210Z,1008.2
2018-12-13T03:17:12.602Z,1008.2
2018-12-13T03:18:13.982Z,1008.1
2018-12-13T03:19:15.359Z,1008.2
2018-12-13T03:20:16.741Z,1008.1
2018-12-13T03:21:18.129Z,1008.1
2018-12-13T03:22:19.507Z,1008.1
2018-12-13T03:23:20.912Z,1008.1
2018-12-13T03:24:22.289Z,1008.1
2018-12-13T03:25:23.669Z,1008.1
2018-12-13T03:26:25.061Z,1008.1
2018-12-13T03:27:26.437Z,1008.0
2018-12-13T03:28:27.815Z,1008.0
2018-12-13T03:29:29.301Z,1008.0
2018-12-13T03:30:30.686Z,1008.0
2018-12-13T03:31:32.058Z,1008.0
2018-12-13T03:32:33.448Z,1008.0
2018-12-13T03:33:34.858Z,1008.0
2018-12-13T03:34:36.228Z,1008.0
2018-12-13T03:35:37.607Z,1007.9
2018-12-13T03:36:38.990Z,1007.9
2018-12-13T03:37:40.369Z,1007.9
2018-12-13T03:38:41.750Z,1007.9
2018-12-13T03:39:43.127Z,1007.9
2018-12-13T03:40:44.606Z,1007.9
2018-12-13T03:41:45.852Z,1007.9
2018-12-13T03:42:47.260Z,1007.9
2018-12-13T03:43:48.665Z,1007.9
2018-12-13T03:44:50.057Z,1007.8
2018-12-13T03:45:51.434Z,1007.8
2018-12-13T03:46:52.816Z,1007.8
2018-12-13T03:47:54.199Z,1007.9
2018-12-13T03:48:55.573Z,1007.8
2018-12-13T03:49:56.953Z,1007.8
2018-12-13T03:50:58.331Z,1007.8
2018-12-13T03:51:59.712Z,1007.8
2018-12-13T03:53:01.101Z,1007.8
2018-12-13T03:54:02.482Z,1007.8
2018-12-13T03:55:03.859Z,1007.7
2018-12-13T03:56:05.239Z,1007.8
2018-12-13T03:57:06.617Z,1007.8
2018-12-13T03:58:08.008Z,1007.8
2018-12-13T03:59:09.386Z,1007.8
2018-12-13T04:00:10.765Z,1007.7
2018-12-13T04:01:12.188Z,1007.7
2018-12-13T04:02:13.579Z,1007.7
2018-12-13T04:03:14.955Z,1007.7
2018-12-13T04:04:16.335Z,1007.7
2018-12-13T04:05:17.735Z,1007.7
2018-12-13T04:06:19.120Z,1007.7
2018-12-13T04:07:27.553Z,1007.7
2018-12-13T04:08:21.853Z,1007.7
2018-12-13T04:09:23.243Z,1007.7
2018-12-13T04:10:24.644Z,1007.6
2018-12-13T04:11:26.018Z,1007.6
2018-12-13T04:12:27.409Z,1007.6
2018-12-13T04:13:28.791Z,1007.7
2018-12-13T04:14:30.178Z,1007.6
2018-12-13T04:15:31.561Z,1007.6
2018-12-13T04:16:33.006Z,1007.6
2018-12-13T04:17:34.375Z,1007.6
2018-12-13T04:18:35.764Z,1007.7
2018-12-13T04:19:37.139Z,1007.6
2018-12-13T04:20:38.518Z,1007.6
2018-12-13T04:21:39.928Z,1007.6
2018-12-13T04:22:41.443Z,1007.6
2018-12-13T04:23:42.826Z,1007.6
2018-12-13T04:24:44.198Z,1007.6
2018-12-13T04:25:45.578Z,1007.5
2018-12-13T04:26:46.955Z,1007.5
2018-12-13T04:27:48.336Z,1007.5
2018-12-13T04:28:49.714Z,1007.5
2018-12-13T04:29:51.091Z,1007.5
2018-12-13T04:30:52.471Z,1007.6
2018-12-13T04:31:53.850Z,1007.6
2018-12-13T04:32:55.225Z,1007.6
2018-12-13T04:33:56.602Z,1007.6
2018-12-13T04:34:57.998Z,1007.5
2018-12-13T04:35:59.372Z,1007.6
2018-12-13T04:37:00.751Z,1007.5
2018-12-13T04:38:02.143Z,1007.5
2018-12-13T04:39:03.553Z,1007.5
2018-12-13T04:40:04.923Z,1007.5
2018-12-13T04:41:06.295Z,1007.5
2018-12-13T04:42:07.694Z,1007.5
2018-12-13T04:43:09.087Z,1007.5
2018-12-13T04:44:10.470Z,1007.5
2018-12-13T04:45:11.850Z,1007.5
2018-12-13T04:46:13.250Z,1007.5
2018-12-13T04:47:14.639Z,1007.5
2018-12-13T04:48:16.020Z,1007.5
2018-12-13T04:49:17.415Z,1007.5
2018-12-13T04:50:18.805Z,1007.5
2018-12-13T04:51:20.195Z,1007.5
2018-12-13T04:52:21.586Z,1007.5
2018-12-13T04:53:22.961Z,1007.5
2018-12-13T04:54:24.354Z,1007.6
2018-12-13T04:55:25.745Z,1007.6
2018-12-13T04:56:27.131Z,1007.6
2018-12-13T04:57:28.514Z,1007.5
2018-12-13T04:58:29.899Z,1007.5
2018-12-13T04:59:31.306Z,1007.6
2018-12-13T05:00:32.687Z,1007.5
2018-12-13T05:01:34.091Z,1007.5
2018-12-13T05:02:35.471Z,1007.5
2018-12-13T05:03:36.893Z,1007.5
2018-12-13T05:04:38.283Z,1007.5
2018-12-13T05:05:39.663Z,1007.5
2018-12-13T05:06:41.075Z,1007.4
2018-12-13T05:07:42.461Z,1007.5
2018-12-13T05:08:43.837Z,1007.5
2018-12-13T05:09:45.218Z,1007.4
2018-12-13T05:10:46.620Z,1007.3
2018-12-13T05:11:48.006Z,1007.3
2018-12-13T05:12:49.411Z,1007.3
2018-12-13T05:13:50.792Z,1007.4
2018-12-13T05:14:52.237Z,1007.4
2018-12-13T05:15:53.616Z,1007.4
2018-12-13T05:16:54.993Z,1007.4
2018-12-13T05:17:56.379Z,1007.4
2018-12-13T05:18:57.755Z,1007.4
2018-12-13T05:19:59.135Z,1007.4
2018-12-13T05:21:00.546Z,1007.4
2018-12-13T05:22:01.930Z,1007.4
2018-12-13T05:23:03.316Z,1007.3
2018-12-13T05:24:04.702Z,1007.3
2018-12-13T05:25:06.084Z,1007.3
2018-12-13T05:26:07.463Z,1007.3
2018-12-13T05:27:08.883Z,1007.3
2018-12-13T05:28:10.257Z,1007.4
2018-12-13T05:29:11.652Z,1007.4
2018-12-13T05:30:13.038Z,1007.3
2018-12-13T05:31:14.425Z,1007.3
2018-12-13T05:32:15.818Z,1007.3
2018-12-13T05:33:17.205Z,1007.3
2018-12-13T05:34:18.585Z,1007.2
2018-12-13T05:35:19.985Z,1007.3
2018-12-13T05:36:21.379Z,1007.2
2018-12-13T05:37:22.763Z,1007.3
2018-12-13T05:38:24.158Z,1007.2
2018-12-13T05:39:25.547Z,1007.2
2018-12-13T05:40:26.928Z,1007.2
2018-12-13T05:41:28.316Z,1007.2
2018-12-13T05:42:29.720Z,1007.2
2018-12-13T05:43:31.097Z,1007.2
2018-12-13T05:44:32.473Z,1007.2
2018-12-13T05:45:33.857Z,1007.2
2018-12-13T05:46:35.237Z,1007.2
2018-12-13T05:47:36.694Z,1007.2
2018-12-13T05:48:38.073Z,1007.2
2018-12-13T05:49:39.469Z,1007.2
2018-12-13T05:50:40.843Z,1007.2
2018-12-13T05:51:42.256Z,1007.2
2018-12-13T05:52:43.612Z,1007.2
2018-12-13T05:53:45.013Z,1007.2
2018-12-13T05:54:46.411Z,1007.2
2018-12-13T05:55:47.802Z,1007.2
2018-12-13T05:56:49.189Z,1007.1
2018-12-13T05:57:50.586Z,1007.1
2018-12-13T05:58:51.961Z,1007.1
2018-12-13T05:59:53.359Z,1007.1
2018-12-13T06:00:54.736Z,1007.0
2018-12-13T06:01:56.125Z,1007.0
2018-12-13T06:02:57.506Z,1007.0
2018-12-13T06:03:58.902Z,1007.1
2018-12-13T06:05:00.307Z,1007.1
2018-12-13T06:06:01.716Z,1007.1
2018-12-13T06:07:03.241Z,1007.1
2018-12-13T06:08:05.171Z,1007.1
2018-12-13T06:09:06.587Z,1007.1
2018-12-13T06:10:07.985Z,1007.1
2018-12-13T06:11:09.386Z,1007.0
2018-12-13T06:12:10.823Z,1007.0
2018-12-13T06:13:12.360Z,1007.0
2018-12-13T06:14:13.765Z,1007.0
2018-12-13T06:15:15.171Z,1007.1
2018-12-13T06:16:16.523Z,1007.0
2018-12-13T06:17:17.938Z,1007.0
2018-12-13T06:18:19.406Z,1007.0
2018-12-13T06:19:26.556Z,1007.0
2018-12-13T06:20:22.170Z,1007.0
2018-12-13T06:21:23.576Z,1007.1
2018-12-13T06:22:25.007Z,1007.0
2018-12-13T06:23:26.709Z,1007.1
2018-12-13T06:24:28.175Z,1007.0
2018-12-13T06:25:29.619Z,1007.0
2018-12-13T06:26:31.150Z,1007.0
2018-12-13T06:27:32.524Z,1007.0
2018-12-13T06:28:33.914Z,1007.0
2018-12-13T06:29:41.587Z,1007.0
2018-12-13T06:30:36.729Z,1007.0
2018-12-13T06:31:38.137Z,1007.1
2018-12-13T06:32:39.581Z,1007.1
2018-12-13T06:33:40.994Z,1007.1
2018-12-13T06:34:42.388Z,1007.1
2018-12-13T06:35:43.847Z,1007.1
2018-12-13T06:36:45.250Z,1007.2
2018-12-13T06:37:46.722Z,1007.1
2018-12-13T06:38:48.194Z,1007.1
2018-12-13T06:39:49.619Z,1007.2
2018-12-13T06:40:51.017Z,1007.1
2018-12-13T06:41:52.419Z,1007.1
2018-12-13T06:42:53.827Z,1007.2
2018-12-13T06:43:55.280Z,1007.2
2018-12-13T06:44:56.711Z,1007.2
2018-12-13T06:45:58.118Z,1007.2
2018-12-13T06:46:59.521Z,1007.2
2018-12-13T06:48:00.984Z,1007.2
2018-12-13T06:49:02.415Z,1007.3
2018-12-13T06:50:03.833Z,1007.3
2018-12-13T06:51:05.221Z,1007.2
2018-12-13T06:52:06.666Z,1007.2
2018-12-13T06:53:08.071Z,1007.3
2018-12-13T06:54:09.528Z,1007.3
2018-12-13T06:55:11.007Z,1007.3
2018-12-13T06:56:12.512Z,1007.3
2018-12-13T06:57:13.890Z,1007.3
2018-12-13T06:58:15.320Z,1007.3
2018-12-13T06:59:16.827Z,1007.3
2018-12-13T07:00:18.271Z,1007.4
2018-12-13T07:01:19.727Z,1007.3
2018-12-13T07:02:21.118Z,1007.3
2018-12-13T07:03:22.599Z,1007.3
2018-12-13T07:04:24.097Z,1007.3
2018-12-13T07:05:25.563Z,1007.3
2018-12-13T07:06:27.041Z,1007.2
2018-12-13T07:07:28.548Z,1007.3
2018-12-13T07:08:30.045Z,1007.3
2018-12-13T07:09:31.659Z,1007.3
2018-12-13T07:10:33.149Z,1007.3
2018-12-13T07:11:34.711Z,1007.2
2018-12-13T07:12:36.238Z,1007.2
2018-12-13T07:13:37.755Z,1007.3
2018-12-13T07:14:39.281Z,1007.3
2018-12-13T07:15:40.795Z,1007.3
2018-12-13T07:16:42.377Z,1007.3
2018-12-13T07:17:43.891Z,1007.3
2018-12-13T07:18:45.603Z,1007.3
2018-12-13T07:19:47.151Z,1007.3
2018-12-13T07:20:48.840Z,1007.3
2018-12-13T07:21:50.379Z,1007.3
2018-12-13T07:22:52.007Z,1007.3
2018-12-13T07:23:53.593Z,1007.3
2018-12-13T07:24:55.135Z,1007.3
2018-12-13T07:25:56.680Z,1007.3
2018-12-13T07:27:00.355Z,1007.4
2018-12-13T07:28:01.930Z,1007.3
2018-12-13T07:29:03.708Z,1007.4
2018-12-13T07:30:05.471Z,1007.4
2018-12-13T07:31:07.270Z,1007.3
2018-12-13T07:32:09.176Z,1007.3
2018-12-13T07:33:11.097Z,1007.4
2018-12-13T07:34:12.755Z,1007.4
2018-12-13T07:35:14.772Z,1007.4
2018-12-13T07:36:18.394Z,1007.4
2018-12-13T07:37:20.244Z,1007.4
2018-12-13T07:38:22.262Z,1007.4
2018-12-13T07:39:23.828Z,1007.4
2018-12-13T07:40:25.607Z,1007.4
2018-12-13T07:41:29.866Z,1007.4
2018-12-13T07:42:31.700Z,1007.5
2018-12-13T07:43:33.260Z,1007.4
2018-12-13T07:44:34.805Z,1007.5
2018-12-13T07:45:36.349Z,1007.5
2018-12-13T07:46:38.926Z,1007.5
2018-12-13T07:47:40.423Z,1007.5
2018-12-13T07:48:41.960Z,1007.5
2018-12-13T07:49:43.634Z,1007.5
2018-12-13T07:50:45.148Z,1007.5
2018-12-13T07:56:52.878Z,1007.5
2018-12-13T07:57:54.714Z,1007.5
2018-12-13T07:58:56.392Z,1007.5
2018-12-13T07:59:58.016Z,1007.4
2018-12-13T08:02:35.302Z,1007.5
2018-12-13T08:03:36.912Z,1007.5
2018-12-13T08:04:38.446Z,1007.5
2018-12-13T08:05:39.979Z,1007.5
2018-12-13T08:06:41.589Z,1007.5
2018-12-13T08:07:43.099Z,1007.6
2018-12-13T08:09:27.082Z,1007.6
2018-12-13T08:11:10.277Z,1007.6
2018-12-13T08:13:32.818Z,1007.7
2018-12-13T08:15:15.431Z,1007.7
2018-12-13T08:16:16.904Z,1007.6
2018-12-13T08:17:18.415Z,1007.7
2018-12-13T08:21:50.392Z,1007.7
2018-12-13T08:22:51.932Z,1007.7
2018-12-13T08:23:53.477Z,1007.8
2018-12-13T08:24:54.965Z,1007.7
2018-12-13T08:25:56.477Z,1007.7
2018-12-13T08:26:58.015Z,1007.7
2018-12-13T08:27:59.568Z,1007.6
2018-12-13T08:29:01.159Z,1007.7
2018-12-13T08:30:02.752Z,1007.7
2018-12-13T08:31:04.328Z,1007.7
2018-12-13T08:32:05.854Z,1007.7
2018-12-13T08:33:07.537Z,1007.7
2018-12-13T08:34:09.047Z,1007.7
2018-12-13T08:35:10.482Z,1007.7
2018-12-13T08:36:12.072Z,1007.7
2018-12-13T08:37:13.672Z,1007.7
2018-12-13T08:38:15.137Z,1007.7
2018-12-13T08:39:16.643Z,1007.7
2018-12-13T08:40:18.299Z,1007.7
2018-12-13T08:41:19.776Z,1007.7
2018-12-13T08:42:21.298Z,1007.7
2018-12-13T08:43:22.808Z,1007.7
2018-12-13T08:44:24.307Z,1007.7
2018-12-13T08:45:25.831Z,1007.7
2018-12-13T08:46:27.304Z,1007.7
2018-12-13T08:47:28.753Z,1007.7
2018-12-13T08:48:30.220Z,1007.7
2018-12-13T08:49:31.678Z,1007.7
2018-12-13T08:50:33.188Z,1007.7
2018-12-13T08:51:34.733Z,1007.7
2018-12-13T08:52:36.302Z,1007.7
2018-12-13T08:53:37.839Z,1007.7
2018-12-13T08:54:39.330Z,1007.7
2018-12-13T08:55:40.836Z,1007.7
2018-12-13T08:56:42.325Z,1007.7
2018-12-13T08:57:43.822Z,1007.7
2018-12-13T08:58:45.280Z,1007.6
2018-12-13T08:59:46.892Z,1007.7
2018-12-13T09:00:48.501Z,1007.6
2018-12-13T09:01:50.014Z,1007.6
2018-12-13T09:02:51.454Z,1007.6
2018-12-13T09:03:52.941Z,1007.6
2018-12-13T09:04:54.459Z,1007.6
2018-12-13T09:05:55.910Z,1007.7
2018-12-13T09:06:57.381Z,1007.7
2018-12-13T09:07:58.890Z,1007.6
2018-12-13T09:09:00.406Z,1007.6
2018-12-13T09:10:01.962Z,1007.7
2018-12-13T09:11:03.449Z,1007.6
2018-12-13T09:12:04.921Z,1007.7
2018-12-13T09:13:06.348Z,1007.6
2018-12-13T09:14:07.870Z,1007.7
2018-12-13T09:15:09.387Z,1007.7
2018-12-13T09:16:10.831Z,1007.7
2018-12-13T09:17:12.291Z,1007.6
2018-12-13T09:18:13.824Z,1007.7
2018-12-13T09:19:15.344Z,1007.7
2018-12-13T09:20:16.865Z,1007.7
2018-12-13T09:21:18.350Z,1007.7
2018-12-13T09:22:19.857Z,1007.7
2018-12-13T09:23:21.347Z,1007.7
2018-12-13T09:24:22.795Z,1007.7
2018-12-13T09:25:24.345Z,1007.7
2018-12-13T09:26:25.759Z,1007.7
2018-12-13T09:27:27.157Z,1007.7
2018-12-13T09:28:28.588Z,1007.7
2018-12-13T09:29:30.020Z,1007.7
2018-12-13T09:30:31.508Z,1007.7
2018-12-13T09:31:33.040Z,1007.7
2018-12-13T09:32:34.493Z,1007.7
2018-12-13T09:33:35.945Z,1007.7
2018-12-13T09:34:37.484Z,1007.7
2018-12-13T09:35:38.970Z,1007.7
2018-12-13T09:36:40.373Z,1007.7
2018-12-13T09:37:47.268Z,1007.7
2018-12-13T09:38:43.405Z,1007.7
2018-12-13T09:39:44.806Z,1007.8
2018-12-13T09:40:46.280Z,1007.7
2018-12-13T09:41:48.713Z,1007.7
2018-12-13T09:42:50.382Z,1007.8
2018-12-13T09:43:51.837Z,1007.7
2018-12-13T09:44:53.340Z,1007.7
2018-12-13T09:45:54.842Z,1007.7
2018-12-13T09:46:57.150Z,1007.7
2018-12-13T09:47:58.580Z,1007.7
2018-12-13T09:49:00.084Z,1007.7
2018-12-13T09:50:01.617Z,1007.7
2018-12-13T09:51:03.069Z,1007.7
2018-12-13T09:52:04.445Z,1007.7
2018-12-13T09:53:05.930Z,1007.7
2018-12-13T09:54:07.351Z,1007.7
2018-12-13T09:55:08.847Z,1007.6
2018-12-13T09:56:10.305Z,1007.6
2018-12-13T09:57:11.812Z,1007.7
2018-12-13T09:58:13.273Z,1007.7
2018-12-13T09:59:14.713Z,1007.6
2018-12-13T10:00:16.191Z,1007.6
2018-12-13T10:01:17.624Z,1007.6
2018-12-13T10:02:19.048Z,1007.6
2018-12-13T10:03:20.478Z,1007.6
2018-12-13T10:04:21.921Z,1007.7
2018-12-13T10:05:23.317Z,1007.7
2018-12-13T10:06:24.743Z,1007.7
2018-12-13T10:07:26.196Z,1007.6
2018-12-13T10:08:27.689Z,1007.6
2018-12-13T10:09:29.138Z,1007.5
2018-12-13T10:10:30.554Z,1007.5
2018-12-13T10:11:32.023Z,1007.6
2018-12-13T10:12:33.520Z,1007.5
2018-12-13T10:13:34.905Z,1007.5
2018-12-13T10:14:36.421Z,1007.5
2018-12-13T10:15:37.917Z,1007.5
2018-12-13T10:16:39.336Z,1007.5
2018-12-13T10:17:40.820Z,1007.5
2018-12-13T10:18:42.243Z,1007.5
2018-12-13T10:19:43.668Z,1007.5
2018-12-13T10:20:45.114Z,1007.5
2018-12-13T10:21:46.554Z,1007.6
2018-12-13T10:22:48.148Z,1007.5
2018-12-13T10:23:49.608Z,1007.5
2018-12-13T10:24:51.022Z,1007.5
2018-12-13T10:25:52.444Z,1007.5
2018-12-13T10:26:53.884Z,1007.6
2018-12-13T10:27:55.422Z,1007.5
2018-12-13T10:28:56.858Z,1007.4
2018-12-13T10:29:58.280Z,1007.5
2018-12-13T10:30:59.709Z,1007.5
2018-12-13T10:32:01.107Z,1007.6
2018-12-13T10:33:02.528Z,1007.5
2018-12-13T10:34:03.946Z,1007.5
2018-12-13T10:35:11.137Z,1007.4
2018-12-13T10:36:06.768Z,1007.4
2018-12-13T10:37:47.902Z,1007.4
2018-12-13T10:39:32.084Z,1007.5
2018-12-13T10:40:33.474Z,1007.4
2018-12-13T10:41:34.969Z,1007.4
2018-12-13T10:42:36.461Z,1007.5
2018-12-13T10:43:37.993Z,1007.4
2018-12-13T10:44:39.422Z,1007.4
2018-12-13T10:45:40.845Z,1007.4
2018-12-13T10:46:42.286Z,1007.4
2018-12-13T10:47:43.718Z,1007.4
2018-12-13T10:48:45.141Z,1007.4
2018-12-13T10:49:46.612Z,1007.5
2018-12-13T10:50:48.085Z,1007.5
2018-12-13T10:51:49.562Z,1007.5
2018-12-13T10:52:51.014Z,1007.4
2018-12-13T10:53:52.425Z,1007.4
2018-12-13T10:54:53.842Z,1007.4
2018-12-13T10:55:55.336Z,1007.5
2018-12-13T10:56:56.778Z,1007.5
2018-12-13T10:57:58.208Z,1007.5
2018-12-13T10:58:59.626Z,1007.5
2018-12-13T11:00:01.024Z,1007.5
2018-12-13T11:01:02.489Z,1007.5
2018-12-13T11:02:03.891Z,1007.4
2018-12-13T11:03:05.307Z,1007.4
2018-12-13T11:04:06.710Z,1007.4
2018-12-13T11:05:08.162Z,1007.4
2018-12-13T11:06:09.577Z,1007.4
2018-12-13T11:07:11.022Z,1007.4
2018-12-13T11:08:12.479Z,1007.3
2018-12-13T11:09:13.953Z,1007.4
2018-12-13T11:10:15.409Z,1007.4
2018-12-13T11:11:16.812Z,1007.3
2018-12-13T11:12:18.235Z,1007.3
2018-12-13T11:13:19.668Z,1007.3
2018-12-13T11:14:21.105Z,1007.3
2018-12-13T11:15:22.519Z,1007.3
2018-12-13T11:16:23.935Z,1007.3
2018-12-13T11:17:25.357Z,1007.3
2018-12-13T11:18:26.807Z,1007.3
2018-12-13T11:19:28.247Z,1007.2
2018-12-13T11:20:29.672Z,1007.3
2018-12-13T11:21:31.128Z,1007.3
2018-12-13T11:22:32.577Z,1007.3
2018-12-13T11:23:34.067Z,1007.2
2018-12-13T11:24:35.485Z,1007.2
2018-12-13T11:25:36.968Z,1007.2
2018-12-13T11:26:38.393Z,1007.2
2018-12-13T11:27:39.791Z,1007.2
2018-12-13T11:28:41.320Z,1007.2
2018-12-13T11:29:42.728Z,1007.1
2018-12-13T11:30:44.117Z,1007.1
2018-12-13T11:31:45.536Z,1007.0
2018-12-13T11:32:46.946Z,1007.0
2018-12-13T11:33:48.411Z,1007.0
2018-12-13T11:34:49.851Z,1007.1
2018-12-13T11:35:51.339Z,1007.0
2018-12-13T11:36:52.763Z,1007.0
2018-12-13T11:37:54.178Z,1007.0
2018-12-13T11:38:55.611Z,1006.9
2018-12-13T11:39:57.002Z,1006.9
2018-12-13T11:40:58.391Z,1006.9
2018-12-13T11:41:59.828Z,1006.9
2018-12-13T11:43:01.268Z,1006.9
2018-12-13T11:44:02.750Z,1006.9
2018-12-13T11:45:04.183Z,1006.9
2018-12-13T11:46:05.601Z,1006.8
2018-12-13T11:47:07.011Z,1006.8
2018-12-13T11:48:08.459Z,1006.8
2018-12-13T11:49:12.282Z,1006.9
2018-12-13T11:50:11.283Z,1006.9
2018-12-13T11:51:12.722Z,1006.8
2018-12-13T11:52:14.133Z,1006.8
2018-12-13T11:53:15.547Z,1006.8
2018-12-13T11:54:16.933Z,1006.8
2018-12-13T11:55:18.390Z,1006.8
2018-12-13T11:56:19.818Z,1006.8
2018-12-13T11:57:21.253Z,1006.7
2018-12-13T11:58:22.675Z,1006.7
2018-12-13T11:59:24.105Z,1006.6
2018-12-13T12:00:25.511Z,1006.7
2018-12-13T12:01:26.928Z,1006.7
2018-12-13T12:02:28.351Z,1006.7
2018-12-13T12:03:29.780Z,1006.6
2018-12-13T12:04:31.233Z,1006.7
2018-12-13T12:05:32.719Z,1006.6
2018-12-13T12:06:34.227Z,1006.6
2018-12-13T12:07:35.713Z,1006.6
2018-12-13T12:08:37.220Z,1006.6
2018-12-13T12:09:38.610Z,1006.6
2018-12-13T12:10:40.108Z,1006.6
2018-12-13T12:11:41.556Z,1006.6
2018-12-13T12:12:43.007Z,1006.6
2018-12-13T12:13:44.401Z,1006.6
2018-12-13T12:14:45.923Z,1006.5
2018-12-13T12:15:47.433Z,1006.5
2018-12-13T12:16:48.875Z,1006.4
2018-12-13T12:17:50.305Z,1006.4
2018-12-13T12:18:51.779Z,1006.4
2018-12-13T12:19:53.367Z,1006.4
2018-12-13T12:20:54.800Z,1006.4
2018-12-13T12:21:56.208Z,1006.5
2018-12-13T12:22:57.660Z,1006.5
2018-12-13T12:23:59.119Z,1006.5
2018-12-13T12:25:00.555Z,1006.5
2018-12-13T12:26:01.986Z,1006.5
2018-12-13T12:27:03.417Z,1006.5
2018-12-13T12:28:04.848Z,1006.5
2018-12-13T12:29:06.235Z,1006.5
2018-12-13T12:30:07.660Z,1006.5
2018-12-13T12:31:09.126Z,1006.5
2018-12-13T12:32:10.534Z,1006.5
2018-12-13T12:33:11.958Z,1006.5
2018-12-13T12:34:13.372Z,1006.5
2018-12-13T12:35:14.881Z,1006.5
2018-12-13T12:36:16.292Z,1006.4
2018-12-13T12:37:17.714Z,1006.4
2018-12-13T12:38:19.137Z,1006.4
2018-12-13T12:39:20.556Z,1006.4
2018-12-13T12:40:22.017Z,1006.4
2018-12-13T12:41:23.475Z,1006.3
2018-12-13T12:42:24.910Z,1006.3
2018-12-13T12:43:26.337Z,1006.3
2018-12-13T12:44:27.737Z,1006.3
2018-12-13T12:45:29.139Z,1006.3
2018-12-13T12:46:30.565Z,1006.3
2018-12-13T12:47:31.981Z,1006.2
2018-12-13T12:48:33.429Z,1006.3
2018-12-13T12:49:34.846Z,1006.3
2018-12-13T12:50:36.248Z,1006.2
2018-12-13T12:51:37.664Z,1006.3
2018-12-13T12:52:39.102Z,1006.2
2018-12-13T12:53:40.510Z,1006.3
2018-12-13T12:54:41.999Z,1006.2
2018-12-13T12:55:43.455Z,1006.2
2018-12-13T12:56:44.851Z,1006.2
2018-12-13T12:57:46.253Z,1006.2
2018-12-13T12:58:47.676Z,1006.2
2018-12-13T12:59:49.097Z,1006.2
2018-12-13T13:00:50.606Z,1006.1
2018-12-13T13:01:52.079Z,1006.1